createdAt,value
2023-05-16T00:07:31.966Z,12.49
2023-05-16T00:18:09.292Z,12.44
2023-05-16T00:28:46.158Z,12.15
2023-05-16T00:39:22.903Z,12.39
2023-05-16T00:50:00.382Z,12.18
2023-05-16T01:01:00.913Z,12.28
2023-05-16T01:12:02.521Z,12.33
2023-05-16T01:23:02.482Z,12.39
2023-05-16T01:34:02.654Z,12.33
2023-05-16T01:45:02.853Z,12.46
2023-05-16T01:56:04.379Z,12.31
2023-05-16T02:07:04.651Z,12.30
2023-05-16T02:18:02.093Z,12.13
2023-05-16T02:29:01.857Z,12.15
2023-05-16T02:40:00.898Z,12.33
2023-05-16T02:50:58.262Z,12.27
2023-05-16T03:02:00.973Z,12.18
2023-05-16T03:13:02.474Z,12.12
2023-05-16T03:24:02.172Z,12.23
2023-05-16T03:34:40.222Z,12.08
2023-05-16T03:45:32.595Z,12.26
2023-05-16T03:56:11.827Z,12.23
2023-05-16T04:07:08.876Z,12.23
2023-05-16T04:18:10.580Z,12.24
2023-05-16T04:29:09.215Z,12.30
2023-05-16T04:40:09.181Z,12.36
2023-05-16T04:51:09.513Z,12.09
2023-05-16T05:02:07.246Z,12.48
2023-05-16T05:12:59.956Z,12.31
2023-05-16T05:23:50.229Z,12.48
2023-05-16T05:34:27.987Z,12.27
2023-05-16T05:45:10.913Z,12.41
2023-05-16T05:55:48.705Z,12.45
2023-05-16T06:06:48.593Z,12.61
2023-05-16T06:17:42.273Z,12.70
2023-05-16T06:28:41.394Z,12.70
2023-05-16T06:39:37.439Z,12.71
2023-05-16T06:50:33.570Z,12.46
2023-05-16T07:01:27.790Z,12.49
2023-05-16T07:12:22.677Z,12.42
2023-05-16T07:23:22.964Z,12.59
2023-05-16T07:34:04.947Z,12.60
2023-05-16T07:45:05.140Z,12.69
2023-05-16T07:55:41.568Z,12.74
2023-05-16T08:06:43.546Z,12.97
2023-05-16T08:17:40.087Z,13.37
2023-05-16T08:28:16.693Z,13.27
2023-05-16T08:39:17.011Z,13.10
2023-05-16T08:50:12.936Z,13.21
2023-05-16T09:01:13.760Z,13.53
2023-05-16T09:12:14.908Z,14.20
2023-05-16T09:22:48.851Z,14.23
2023-05-16T09:33:23.887Z,14.09
2023-05-16T09:43:58.143Z,14.09
2023-05-16T09:54:50.589Z,13.86
2023-05-16T10:05:26.293Z,13.89
2023-05-16T10:16:20.288Z,13.74
2023-05-16T10:27:15.226Z,13.76
2023-05-16T10:37:51.308Z,13.74
2023-05-16T10:48:40.648Z,14.01
2023-05-16T10:59:34.946Z,14.13
2023-05-16T11:10:08.739Z,14.49
2023-05-16T11:20:42.060Z,14.47
2023-05-16T11:31:15.339Z,14.35
2023-05-16T11:42:08.488Z,13.78
2023-05-16T11:52:59.868Z,13.74
2023-05-16T12:03:53.051Z,13.92
2023-05-16T12:14:36.148Z,14.27
2023-05-16T12:25:31.116Z,13.95
2023-05-16T12:36:17.713Z,13.78
2023-05-16T12:47:04.006Z,13.94
2023-05-16T12:57:49.441Z,14.78
2023-05-16T13:08:40.685Z,14.53
2023-05-16T13:19:29.649Z,14.41
2023-05-16T13:30:16.816Z,14.57
2023-05-16T13:41:04.794Z,14.46
2023-05-16T13:51:40.302Z,14.24
2023-05-16T14:02:25.509Z,14.24
2023-05-16T14:13:08.849Z,14.13
2023-05-16T14:23:54.552Z,13.91
2023-05-16T14:34:45.567Z,13.81
2023-05-16T14:45:42.722Z,13.63
2023-05-16T14:56:27.961Z,13.28
2023-05-16T15:07:13.517Z,13.11
2023-05-16T15:18:11.354Z,12.66
2023-05-16T15:29:07.048Z,12.59
2023-05-16T15:40:04.110Z,12.31
2023-05-16T15:51:02.397Z,12.23
2023-05-16T16:01:58.892Z,12.15
2023-05-16T16:12:57.313Z,12.05
2023-05-16T16:23:56.827Z,12.06
2023-05-16T16:34:56.133Z,12.05
2023-05-16T16:45:52.500Z,12.00
2023-05-16T16:56:52.727Z,11.97
2023-05-16T17:07:49.704Z,12.03
2023-05-16T17:18:26.118Z,12.12
2023-05-16T17:29:03.330Z,11.97
2023-05-16T17:39:39.494Z,12.03
2023-05-16T17:50:16.424Z,12.02
2023-05-16T18:11:44.711Z,11.87
2023-05-16T18:22:33.622Z,11.72
2023-05-16T18:33:31.527Z,11.75
2023-05-16T18:44:32.541Z,11.81
2023-05-16T18:55:27.578Z,11.76
2023-05-16T19:06:27.339Z,11.76
2023-05-16T19:17:32.535Z,11.75
2023-05-16T19:28:13.871Z,11.65
2023-05-16T19:38:53.189Z,11.32
2023-05-16T19:49:48.485Z,11.61
2023-05-16T20:00:48.944Z,11.56
2023-05-16T20:11:40.941Z,11.57
2023-05-16T20:22:36.962Z,11.65
2023-05-16T20:33:30.979Z,11.72
2023-05-16T20:44:23.881Z,11.81
2023-05-16T20:55:24.348Z,11.78
2023-05-16T21:06:02.459Z,11.87
2023-05-16T21:17:00.196Z,12.06
2023-05-16T21:27:38.598Z,12.06
2023-05-16T21:38:30.484Z,11.83
2023-05-16T21:49:22.903Z,11.97
2023-05-16T22:00:16.270Z,11.98
2023-05-16T22:11:07.092Z,11.95
2023-05-16T22:21:47.618Z,11.93
2023-05-16T22:32:43.404Z,11.78
2023-05-16T22:43:41.652Z,11.74
2023-05-16T22:54:32.865Z,11.81
2023-05-16T23:05:32.060Z,11.75
2023-05-16T23:16:22.762Z,11.86
2023-05-16T23:27:20.113Z,11.68
2023-05-16T23:38:17.495Z,11.86
2023-05-16T23:48:58.231Z,11.78
2023-05-16T23:59:52.716Z,12.19
